createdAt,value
2022-08-18T00:01:16.396Z,100310.97
2022-08-18T00:03:55.672Z,100300.41
2022-08-18T00:06:29.505Z,100297.16
2022-08-18T00:08:59.707Z,100307.28
2022-08-18T00:11:41.275Z,100304.78
2022-08-18T00:14:19.705Z,100308.59
2022-08-18T00:16:54.320Z,100302.50
2022-08-18T00:19:46.515Z,100300.94
2022-08-18T00:22:22.370Z,100304.25
2022-08-18T00:24:52.947Z,100300.16
2022-08-18T00:27:26.191Z,100304.00
2022-08-18T00:29:58.477Z,100297.97
2022-08-18T00:32:30.829Z,100291.88
2022-08-18T00:34:58.973Z,100300.22
2022-08-18T00:37:26.878Z,100295.06
2022-08-18T00:39:55.106Z,100290.81
2022-08-18T00:42:29.007Z,100292.81
2022-08-18T00:45:01.282Z,100284.88
2022-08-18T00:47:41.788Z,100285.03
2022-08-18T00:50:15.193Z,100278.00
2022-08-18T00:52:48.865Z,100290.69
2022-08-18T00:55:19.518Z,100289.00
2022-08-18T00:57:49.605Z,100292.81
2022-08-18T01:00:18.231Z,100288.47
2022-08-18T01:02:51.662Z,100286.78
2022-08-18T01:05:24.006Z,100290.53
2022-08-18T01:07:52.511Z,100282.59
2022-08-18T01:10:23.055Z,100289.13
2022-08-18T01:12:53.367Z,100290.22
2022-08-18T01:15:28.517Z,100295.91
2022-08-18T01:18:18.707Z,100302.41
2022-08-18T01:21:16.638Z,100296.22
2022-08-18T01:23:48.733Z,100283.84
2022-08-18T01:26:18.113Z,100286.63
2022-08-18T01:28:49.465Z,100279.47
2022-08-18T01:31:33.244Z,100275.13
2022-08-18T01:34:02.037Z,100283.31
2022-08-18T01:36:30.005Z,100278.91
2022-08-18T01:38:59.356Z,100285.38
2022-08-18T01:41:30.824Z,100282.91
2022-08-18T01:44:00.676Z,100273.25
2022-08-18T01:46:30.316Z,100277.91
2022-08-18T01:49:01.157Z,100278.94
2022-08-18T01:51:39.584Z,100290.94
2022-08-18T01:54:12.910Z,100292.03
2022-08-18T01:56:42.409Z,100294.00
2022-08-18T01:59:14.908Z,100296.00
2022-08-18T02:01:50.459Z,100292.69
2022-08-18T02:04:40.802Z,100290.34
2022-08-18T02:07:11.446Z,100294.13
2022-08-18T02:09:42.278Z,100302.44
2022-08-18T02:12:11.464Z,100306.41
2022-08-18T02:14:39.989Z,100310.91
2022-08-18T02:17:11.084Z,100304.81
2022-08-18T02:19:41.247Z,100301.41
2022-08-18T02:22:11.045Z,100296.22
2022-08-18T02:24:40.439Z,100298.13
2022-08-18T02:27:09.596Z,100309.91
2022-08-18T02:29:38.082Z,100306.44
2022-08-18T02:32:07.377Z,100307.47
2022-08-18T02:34:35.731Z,100311.19
2022-08-18T02:37:04.483Z,100308.56
2022-08-18T02:39:35.691Z,100310.47
2022-08-18T02:42:05.752Z,100303.31
2022-08-18T02:44:33.686Z,100298.88
2022-08-18T02:47:01.798Z,100296.25
2022-08-18T02:49:29.739Z,100296.31
2022-08-18T02:51:57.591Z,100300.94
2022-08-18T02:54:26.005Z,100290.28
2022-08-18T02:56:54.081Z,100300.41
2022-08-18T02:59:27.555Z,100310.41
2022-08-18T03:01:57.317Z,100320.38
2022-08-18T03:04:29.839Z,100325.00
2022-08-18T03:07:00.767Z,100323.44
2022-08-18T03:09:29.746Z,100313.75
2022-08-18T03:11:58.329Z,100316.56
2022-08-18T03:14:27.984Z,100324.78
2022-08-18T03:16:56.176Z,100319.53
2022-08-18T03:19:25.545Z,100325.88
2022-08-18T03:21:55.038Z,100321.56
2022-08-18T03:24:26.502Z,100323.38
2022-08-18T03:26:57.382Z,100323.44
2022-08-18T03:29:32.011Z,100335.09
2022-08-18T03:32:01.481Z,100335.16
2022-08-18T03:34:29.739Z,100327.06
2022-08-18T03:36:57.717Z,100328.84
2022-08-18T03:39:27.835Z,100322.59
2022-08-18T03:42:01.112Z,100334.22
2022-08-18T03:44:33.410Z,100320.75
2022-08-18T03:47:03.780Z,100329.78
2022-08-18T03:49:33.888Z,100331.53
2022-08-18T03:52:02.673Z,100327.00
2022-08-18T03:54:33.706Z,100329.69
2022-08-18T03:57:02.149Z,100332.31
2022-08-18T03:59:32.146Z,100330.50
2022-08-18T04:02:00.343Z,100333.94
2022-08-18T04:04:29.618Z,100340.19
2022-08-18T04:07:00.099Z,100340.19
2022-08-18T04:09:30.879Z,100341.06
2022-08-18T04:12:03.567Z,100339.16
2022-08-18T04:14:33.149Z,100333.78
2022-08-18T04:17:00.991Z,100339.09
2022-08-18T04:19:28.847Z,100338.16
2022-08-18T04:21:58.172Z,100348.94
2022-08-18T04:24:28.119Z,100350.72
2022-08-18T04:26:57.608Z,100336.34
2022-08-18T04:29:25.939Z,100342.56
2022-08-18T04:31:56.170Z,100347.88
2022-08-18T04:34:24.193Z,100352.25
2022-08-18T04:36:54.042Z,100356.69
2022-08-18T04:39:22.951Z,100357.50
2022-08-18T04:41:51.730Z,100367.31
2022-08-18T04:44:20.223Z,100362.66
2022-08-18T04:46:51.059Z,100365.28
2022-08-18T04:49:22.350Z,100356.13
2022-08-18T04:52:34.278Z,100350.56
2022-08-18T04:54:53.469Z,100352.19
2022-08-18T04:57:23.032Z,100353.84
2022-08-18T04:59:53.514Z,100358.25
2022-08-18T05:02:22.699Z,100354.44
2022-08-18T05:04:53.610Z,100361.53
2022-08-18T05:07:23.697Z,100365.00
2022-08-18T05:09:55.125Z,100367.63
2022-08-18T05:12:26.024Z,100364.81
2022-08-18T05:14:56.976Z,100369.09
2022-08-18T05:17:30.247Z,100368.06
2022-08-18T05:20:01.441Z,100375.13
2022-08-18T05:22:31.861Z,100382.09
2022-08-18T05:25:00.958Z,100379.19
2022-08-18T05:27:33.323Z,100383.44
2022-08-18T05:30:01.190Z,100385.03
2022-08-18T05:32:46.478Z,100379.41
2022-08-18T05:35:23.304Z,100389.00
2022-08-18T05:38:26.879Z,100391.41
2022-08-18T05:41:13.808Z,100394.88
2022-08-18T05:43:45.990Z,100383.91
2022-08-18T05:46:22.935Z,100390.97
2022-08-18T05:48:51.579Z,100389.88
2022-08-18T05:51:28.612Z,100385.28
2022-08-18T05:54:14.568Z,100392.28
2022-08-18T05:56:48.284Z,100383.94
2022-08-18T05:59:24.790Z,100383.75
2022-08-18T06:01:58.011Z,100376.41
2022-08-18T06:04:35.373Z,100384.41
2022-08-18T06:07:09.900Z,100389.66
2022-08-18T06:09:44.577Z,100391.34
2022-08-18T06:12:22.746Z,100390.28
2022-08-18T06:14:50.902Z,100379.34
2022-08-18T06:17:38.253Z,100383.66
2022-08-18T06:20:16.065Z,100388.78
2022-08-18T06:22:56.560Z,100397.59
2022-08-18T06:25:32.860Z,100398.41
2022-08-18T06:28:07.127Z,100401.84
2022-08-18T06:30:50.694Z,100398.00
2022-08-18T06:33:36.980Z,100408.50
2022-08-18T06:36:14.385Z,100407.38
2022-08-18T06:39:03.034Z,100413.47
2022-08-18T06:41:37.916Z,100425.72
2022-08-18T06:44:17.335Z,100426.38
2022-08-18T06:46:48.363Z,100432.41
2022-08-18T06:49:29.485Z,100430.25
2022-08-18T06:51:57.313Z,100431.78
2022-08-18T06:54:31.293Z,100433.34
2022-08-18T06:57:00.013Z,100437.72
2022-08-18T06:59:31.910Z,100434.81
2022-08-18T07:02:07.285Z,100438.34
2022-08-18T07:04:42.632Z,100445.16
2022-08-18T07:07:20.680Z,100446.66
2022-08-18T07:09:50.431Z,100450.84
2022-08-18T07:12:29.060Z,100453.22
2022-08-18T07:15:02.968Z,100465.44
2022-08-18T07:17:43.185Z,100471.38
2022-08-18T07:20:21.567Z,100469.25
2022-08-18T07:22:55.069Z,100468.84
2022-08-18T07:25:28.405Z,100458.53
2022-08-18T07:27:57.258Z,100451.75
2022-08-18T07:30:36.039Z,100452.25
2022-08-18T07:33:13.128Z,100444.47
2022-08-18T07:35:47.852Z,100446.56
2022-08-18T07:41:20.305Z,100435.63
2022-08-18T07:43:57.993Z,100437.72
2022-08-18T07:46:35.401Z,100444.34
2022-08-18T07:49:05.501Z,100440.13
2022-08-18T07:51:47.376Z,100443.25
2022-08-18T07:54:48.230Z,100440.06
2022-08-18T07:57:26.146Z,100454.78
2022-08-18T08:00:00.401Z,100450.56
2022-08-18T08:02:41.829Z,100454.56
2022-08-18T08:05:19.145Z,100459.50
2022-08-18T08:07:52.429Z,100459.16
2022-08-18T08:10:31.446Z,100459.66
2022-08-18T08:13:37.046Z,100451.28
2022-08-18T08:16:15.140Z,100443.75
2022-08-18T08:18:50.888Z,100442.59
2022-08-18T08:21:21.086Z,100443.19
2022-08-18T08:23:54.222Z,100442.69
2022-08-18T08:26:33.730Z,100447.63
2022-08-18T08:29:19.411Z,100452.25
2022-08-18T08:31:51.996Z,100444.06
2022-08-18T08:34:36.388Z,100447.56
2022-08-18T08:37:08.435Z,100451.03
2022-08-18T08:39:44.156Z,100450.38
2022-08-18T08:42:31.045Z,100443.47
2022-08-18T08:45:07.947Z,100443.94
2022-08-18T08:47:42.076Z,100445.34
2022-08-18T08:50:14.018Z,100451.34
2022-08-18T08:52:47.402Z,100446.09
2022-08-18T08:55:18.782Z,100448.59
2022-08-18T08:57:52.523Z,100445.91
2022-08-18T09:00:22.019Z,100458.53
2022-08-18T09:03:16.214Z,100446.56
2022-08-18T09:06:01.915Z,100452.91
2022-08-18T09:08:54.795Z,100442.00
2022-08-18T09:12:01.370Z,100433.84
2022-08-18T09:14:52.245Z,100437.56
2022-08-18T09:17:43.138Z,100434.25
2022-08-18T09:20:38.167Z,100448.19
2022-08-18T09:23:10.186Z,100435.00
2022-08-18T09:25:49.104Z,100438.47
2022-08-18T09:28:21.567Z,100439.00
2022-08-18T09:31:12.102Z,100445.50
2022-08-18T09:34:02.578Z,100446.66
2022-08-18T09:36:41.924Z,100452.84
2022-08-18T09:39:47.989Z,100456.22
2022-08-18T09:42:33.962Z,100449.97
2022-08-18T09:45:54.651Z,100442.31
2022-08-18T09:48:31.641Z,100452.75
2022-08-18T09:51:32.318Z,100444.13
2022-08-18T09:54:14.319Z,100454.06
2022-08-18T09:57:08.612Z,100449.41
2022-08-18T10:00:24.367Z,100459.06
2022-08-18T10:03:13.816Z,100465.47
2022-08-18T10:05:57.466Z,100465.94
2022-08-18T10:08:50.258Z,100465.25
2022-08-18T10:11:28.480Z,100464.38
2022-08-18T10:14:15.770Z,100457.69
2022-08-18T10:17:21.304Z,100450.41
2022-08-18T10:19:55.963Z,100448.59
2022-08-18T10:22:44.307Z,100440.03
2022-08-18T10:25:22.631Z,100447.75
2022-08-18T10:27:55.377Z,100443.25
2022-08-18T10:30:56.754Z,100442.03
2022-08-18T10:34:01.775Z,100446.72
2022-08-18T10:36:46.854Z,100443.13
2022-08-18T10:39:18.358Z,100451.94
2022-08-18T10:41:58.344Z,100455.03
2022-08-18T10:44:30.862Z,100445.72
2022-08-18T10:47:01.448Z,100446.84
2022-08-18T10:49:33.219Z,100440.66
2022-08-18T10:52:45.221Z,100449.81
2022-08-18T10:55:48.060Z,100443.50
2022-08-18T10:58:38.666Z,100443.38
2022-08-18T11:01:36.842Z,100432.22
2022-08-18T11:07:07.862Z,100431.94
2022-08-18T11:09:41.597Z,100439.53
2022-08-18T11:12:12.962Z,100442.25
2022-08-18T11:18:13.137Z,100437.31
2022-08-18T11:20:43.229Z,100436.56
2022-08-18T11:23:14.900Z,100434.72
2022-08-18T11:25:43.112Z,100430.38
2022-08-18T11:28:18.254Z,100428.28
2022-08-18T11:30:51.601Z,100424.56
2022-08-18T11:33:23.051Z,100415.84
2022-08-18T11:35:57.812Z,100416.97
2022-08-18T11:38:29.591Z,100413.44
2022-08-18T11:41:13.772Z,100415.78
2022-08-18T11:43:47.599Z,100421.41
2022-08-18T11:52:26.262Z,100443.41
2022-08-18T11:55:02.375Z,100453.63
2022-08-18T11:57:58.565Z,100458.53
2022-08-18T12:00:57.326Z,100459.84
2022-08-18T12:03:49.575Z,100456.66
2022-08-18T12:06:26.582Z,100458.88
2022-08-18T12:09:01.866Z,100456.97
2022-08-18T12:11:32.396Z,100465.72
2022-08-18T12:14:31.322Z,100458.97
2022-08-18T12:16:55.417Z,100460.63
2022-08-18T12:19:28.078Z,100464.50
2022-08-18T12:21:58.401Z,100462.44
2022-08-18T12:24:34.233Z,100450.94
2022-08-18T12:27:12.247Z,100459.94
2022-08-18T12:32:46.833Z,100457.38
2022-08-18T12:35:21.916Z,100464.13
2022-08-18T12:38:00.011Z,100460.63
2022-08-18T12:40:40.123Z,100466.13
2022-08-18T12:43:08.283Z,100451.13
2022-08-18T12:45:38.134Z,100449.97
2022-08-18T12:50:59.826Z,100453.06
2022-08-18T12:53:38.191Z,100447.09
2022-08-18T12:56:22.377Z,100443.22
2022-08-18T12:58:50.968Z,100445.94
2022-08-18T13:01:19.131Z,100434.88
2022-08-18T13:03:52.671Z,100434.88
2022-08-18T13:06:41.207Z,100437.47
2022-08-18T13:09:34.298Z,100420.72
2022-08-18T13:12:14.744Z,100429.28
2022-08-18T13:14:43.390Z,100422.28
2022-08-18T13:17:30.133Z,100414.06
2022-08-18T13:20:00.420Z,100413.22
2022-08-18T13:22:32.100Z,100415.69
2022-08-18T13:25:00.463Z,100412.13
2022-08-18T13:27:32.788Z,100404.00
2022-08-18T13:30:17.061Z,100406.31
2022-08-18T13:33:00.563Z,100390.78
2022-08-18T13:35:38.221Z,100387.84
2022-08-18T13:38:21.220Z,100387.78
2022-08-18T13:40:50.769Z,100379.00
2022-08-18T13:43:23.573Z,100384.84
2022-08-18T13:45:53.502Z,100387.72
2022-08-18T13:48:25.771Z,100398.81
2022-08-18T13:50:56.276Z,100404.53
2022-08-18T13:53:27.595Z,100411.25
2022-08-18T13:55:58.145Z,100405.19
2022-08-18T13:58:27.007Z,100400.75
2022-08-18T14:01:22.812Z,100386.78
2022-08-18T14:03:48.155Z,100401.84
2022-08-18T14:06:23.014Z,100403.13
2022-08-18T14:08:54.704Z,100408.22
2022-08-18T14:11:33.014Z,100408.59
2022-08-18T14:14:02.842Z,100402.53
2022-08-18T14:16:31.590Z,100395.88
2022-08-18T14:19:17.874Z,100400.31
2022-08-18T14:22:05.765Z,100395.13
2022-08-18T14:24:54.414Z,100380.81
2022-08-18T14:27:28.381Z,100377.56
2022-08-18T14:30:04.854Z,100375.28
2022-08-18T14:32:36.130Z,100375.69
2022-08-18T14:35:31.778Z,100379.69
2022-08-18T14:37:54.633Z,100372.88
2022-08-18T14:40:26.375Z,100378.88
2022-08-18T14:42:55.489Z,100369.19
2022-08-18T14:45:31.347Z,100367.59
2022-08-18T14:48:06.695Z,100368.09
2022-08-18T14:50:37.045Z,100364.63
2022-08-18T14:53:05.334Z,100368.47
2022-08-18T14:55:36.039Z,100360.97
2022-08-18T14:58:03.982Z,100354.28
2022-08-18T15:00:35.512Z,100354.63
2022-08-18T15:03:21.525Z,100359.22
2022-08-18T15:05:56.525Z,100367.22
2022-08-18T15:08:24.860Z,100369.41
2022-08-18T15:10:56.439Z,100374.53
2022-08-18T15:13:26.480Z,100378.00
2022-08-18T15:16:01.914Z,100374.03
2022-08-18T15:18:31.403Z,100380.78
2022-08-18T15:21:35.315Z,100376.78
2022-08-18T15:24:24.101Z,100380.66
2022-08-18T15:26:58.203Z,100387.09
2022-08-18T15:29:33.396Z,100393.78
2022-08-18T15:32:06.158Z,100388.72
2022-08-18T15:34:47.153Z,100384.75
2022-08-18T15:37:20.400Z,100384.00
2022-08-18T15:40:02.565Z,100380.53
2022-08-18T15:42:33.184Z,100374.56
2022-08-18T15:45:12.075Z,100374.81
2022-08-18T15:47:42.076Z,100370.84
2022-08-18T15:50:21.801Z,100374.03
2022-08-18T15:52:56.126Z,100373.78
2022-08-18T15:55:25.692Z,100372.06
2022-08-18T15:57:58.139Z,100373.41
2022-08-18T16:00:28.308Z,100368.19
2022-08-18T16:02:59.911Z,100357.56
2022-08-18T16:05:30.422Z,100358.66
2022-08-18T16:08:01.135Z,100359.78
2022-08-18T16:10:32.743Z,100343.78
2022-08-18T16:13:04.454Z,100335.09
2022-08-18T16:15:38.171Z,100325.56
2022-08-18T16:18:09.104Z,100316.84
2022-08-18T16:20:39.109Z,100309.13
2022-08-18T16:23:07.616Z,100320.50
2022-08-18T16:25:37.992Z,100320.91
2022-08-18T16:28:07.900Z,100323.47
2022-08-18T16:30:36.587Z,100325.66
2022-08-18T16:33:06.578Z,100313.41
2022-08-18T16:35:35.565Z,100320.16
2022-08-18T16:38:05.530Z,100319.53
2022-08-18T16:40:33.748Z,100325.47
2022-08-18T16:43:01.656Z,100318.63
2022-08-18T16:45:32.072Z,100316.25
2022-08-18T16:48:01.347Z,100311.13
2022-08-18T16:50:29.773Z,100311.38
2022-08-18T16:52:58.736Z,100305.63
2022-08-18T16:55:26.632Z,100297.94
2022-08-18T16:58:15.446Z,100286.66
2022-08-18T17:01:02.943Z,100281.78
2022-08-18T17:03:48.392Z,100285.09
2022-08-18T17:06:19.728Z,100270.84
2022-08-18T17:08:48.335Z,100272.91
2022-08-18T17:11:19.857Z,100262.50
2022-08-18T17:13:50.101Z,100247.38
2022-08-18T17:16:21.160Z,100253.19
2022-08-18T17:18:49.322Z,100247.06
2022-08-18T17:21:20.115Z,100258.16
2022-08-18T17:23:48.707Z,100252.09
2022-08-18T17:26:25.404Z,100245.00
2022-08-18T17:29:05.655Z,100235.25
2022-08-18T17:31:36.440Z,100239.94
2022-08-18T17:34:10.049Z,100238.31
2022-08-18T17:36:52.495Z,100247.69
2022-08-18T17:39:26.440Z,100263.34
2022-08-18T17:42:11.708Z,100267.13
2022-08-18T17:44:52.142Z,100271.19
2022-08-18T17:47:31.219Z,100269.75
2022-08-18T17:50:28.022Z,100268.16
2022-08-18T17:53:05.471Z,100270.13
2022-08-18T17:55:39.245Z,100259.56
2022-08-18T17:58:14.434Z,100256.19
2022-08-18T18:00:42.735Z,100271.88
2022-08-18T18:03:13.427Z,100277.41
2022-08-18T18:05:43.934Z,100282.28
2022-08-18T18:08:11.845Z,100284.38
2022-08-18T18:11:02.187Z,100279.97
2022-08-18T18:13:32.986Z,100293.13
2022-08-18T18:16:03.865Z,100296.06
2022-08-18T18:18:38.637Z,100296.38
2022-08-18T18:21:08.913Z,100294.84
2022-08-18T18:23:41.200Z,100305.06
2022-08-18T18:26:26.141Z,100300.81
2022-08-18T18:29:12.635Z,100300.81
2022-08-18T18:31:41.863Z,100298.22
2022-08-18T18:34:23.566Z,100294.84
2022-08-18T18:36:57.397Z,100293.28
2022-08-18T18:39:33.179Z,100294.50
2022-08-18T18:42:18.041Z,100291.03
2022-08-18T18:44:54.029Z,100289.47
2022-08-18T18:47:54.449Z,100283.41
2022-08-18T18:50:31.128Z,100302.84
2022-08-18T18:53:13.992Z,100309.44
2022-08-18T18:55:49.058Z,100311.50
2022-08-18T18:58:27.455Z,100304.44
2022-08-18T19:00:58.525Z,100308.31
2022-08-18T19:03:34.281Z,100310.34
2022-08-18T19:06:15.465Z,100323.25
2022-08-18T19:08:55.202Z,100323.44
2022-08-18T19:11:30.290Z,100325.50
2022-08-18T19:14:02.714Z,100334.63
2022-08-18T19:16:34.918Z,100344.69
2022-08-18T19:19:35.828Z,100343.91
2022-08-18T19:22:14.117Z,100342.41
2022-08-18T19:24:50.781Z,100340.63
2022-08-18T19:27:26.324Z,100341.72
2022-08-18T19:29:58.896Z,100350.72
2022-08-18T19:32:35.463Z,100357.09
2022-08-18T19:38:04.246Z,100351.13
2022-08-18T19:40:39.638Z,100354.25
2022-08-18T19:43:12.807Z,100361.81
2022-08-18T19:45:50.832Z,100359.50
2022-08-18T19:48:26.661Z,100358.06
2022-08-18T19:50:59.634Z,100356.50
2022-08-18T19:53:44.450Z,100350.63
2022-08-18T19:56:29.108Z,100351.00
2022-08-18T19:59:19.594Z,100350.56
2022-08-18T20:02:02.581Z,100348.56
2022-08-18T20:04:47.565Z,100357.25
2022-08-18T20:07:54.850Z,100353.47
2022-08-18T20:10:37.610Z,100357.03
2022-08-18T20:13:23.369Z,100353.44
2022-08-18T20:16:12.088Z,100348.72
2022-08-18T20:18:42.763Z,100356.63
2022-08-18T20:21:29.903Z,100371.66
2022-08-18T20:24:02.294Z,100371.25
2022-08-18T20:26:47.714Z,100369.94
2022-08-18T20:29:18.240Z,100378.41
2022-08-18T20:31:59.779Z,100382.25
2022-08-18T20:34:30.098Z,100395.97
2022-08-18T20:37:00.610Z,100402.31
2022-08-18T20:39:35.948Z,100406.94
2022-08-18T20:42:06.721Z,100410.63
2022-08-18T20:44:58.714Z,100411.66
2022-08-18T20:47:59.252Z,100410.03
2022-08-18T20:51:00.016Z,100404.94
2022-08-18T20:53:52.485Z,100396.06
2022-08-18T20:56:31.379Z,100387.31
2022-08-18T20:59:08.534Z,100389.31
2022-08-18T21:01:38.682Z,100389.47
2022-08-18T21:04:07.151Z,100389.63
2022-08-18T21:06:42.093Z,100393.50
2022-08-18T21:09:10.480Z,100386.50
2022-08-18T21:11:43.038Z,100386.66
2022-08-18T21:14:15.099Z,100392.25
2022-08-18T21:16:46.007Z,100383.53
2022-08-18T21:19:23.578Z,100384.47
2022-08-18T21:21:53.407Z,100379.22
2022-08-18T21:24:35.755Z,100374.81
2022-08-18T21:27:06.649Z,100379.50
2022-08-18T21:29:46.942Z,100373.38
2022-08-18T21:32:20.273Z,100373.56
2022-08-18T21:34:48.677Z,100367.34
2022-08-18T21:37:18.346Z,100372.88
2022-08-18T21:39:52.461Z,100364.03
2022-08-18T21:42:26.125Z,100366.03
2022-08-18T21:45:01.123Z,100365.25
2022-08-18T21:47:31.668Z,100363.59
2022-08-18T21:50:03.485Z,100367.25
2022-08-18T21:52:32.314Z,100367.31
2022-08-18T21:55:04.333Z,100351.28
2022-08-18T21:57:51.997Z,100346.91
2022-08-18T22:00:26.901Z,100351.53
2022-08-18T22:03:12.584Z,100352.56
2022-08-18T22:05:58.287Z,100354.41
2022-08-18T22:08:28.311Z,100353.69
2022-08-18T22:11:59.871Z,100353.69
2022-08-18T22:14:36.193Z,100356.47
2022-08-18T22:17:35.158Z,100359.19
2022-08-18T22:20:42.233Z,100369.09
2022-08-18T22:23:45.957Z,100364.59
2022-08-18T22:26:18.844Z,100365.53
2022-08-18T22:28:55.016Z,100366.38
2022-08-18T22:31:24.026Z,100362.81
2022-08-18T22:33:54.250Z,100368.22
2022-08-18T22:36:27.623Z,100371.88
2022-08-18T22:38:55.993Z,100377.28
2022-08-18T22:41:25.354Z,100382.75
2022-08-18T22:43:54.862Z,100389.88
2022-08-18T22:46:24.769Z,100394.34
2022-08-18T22:48:54.342Z,100399.69
2022-08-18T22:51:24.815Z,100394.28
2022-08-18T22:53:53.227Z,100389.75
2022-08-18T22:56:34.630Z,100391.63
2022-08-18T22:59:13.606Z,100388.06
2022-08-18T23:01:46.263Z,100383.63
2022-08-18T23:04:16.931Z,100391.72
2022-08-18T23:06:52.251Z,100388.16
2022-08-18T23:09:22.190Z,100388.16
2022-08-18T23:11:50.848Z,100387.25
2022-08-18T23:14:18.963Z,100383.69
2022-08-18T23:16:47.287Z,100387.34
2022-08-18T23:19:18.987Z,100384.75
2022-08-18T23:21:48.493Z,100382.03
2022-08-18T23:24:17.888Z,100378.53
2022-08-18T23:26:46.154Z,100374.09
2022-08-18T23:29:14.779Z,100373.13
2022-08-18T23:31:45.296Z,100368.69
2022-08-18T23:34:15.359Z,100363.28
2022-08-18T23:36:46.247Z,100359.81
2022-08-18T23:39:14.664Z,100363.44
2022-08-18T23:41:42.738Z,100356.28
2022-08-18T23:44:10.693Z,100363.53
2022-08-18T23:46:39.514Z,100358.13
2022-08-18T23:49:09.232Z,100354.56
2022-08-18T23:51:44.249Z,100350.97
2022-08-18T23:54:15.204Z,100350.19
2022-08-18T23:56:43.058Z,100354.81
2022-08-18T23:59:11.580Z,100354.00
